Thunder radar more information blitzortung!


Radar de pluja more information rain snow radar


Visita la nostra xarxa de llocs de meteo:

Template documentation
and downloads

And another site



No particular awareness of the weather is required.    There are no Weather-warnings

Pagina Historial Weather Underground text

Diari Resum January 17, 2018 Unitats:  Mètric    Imperial   Tant
« Previous Dia
SegĂźent Dia »
Diari Setmana Mensual Anual Personalitzada
  Maxima: Minima: Media:
Temperatura: -17.8 °C -14.9 °C -11.4 °C
Punt de rosada: -17.8 °C -18.8 °C -16.9 °C
Humitat: Humidity % 39 % 50 %
Wind Speed: 0 km/h 0 km/h 12.4 km/h
RĂ fegues de vent: 0 km/h - -
Vent:- - WSW
Pression baro: 0 hPa 34395 hPa -
Precipitacions: 0 mm    
Historical Graphs
 
 
Dades de taula per January 17, 2018
Temps Temperatura Punt de rosada Pression baro Vent Wind Speed RĂ fegues de vent Humitat Rainfall Rate (Hourly)
-17.8 °C -17.8 °C 0 hPa Calm     Humidity % 0 mm
00:00 -11.1 °C -14.8 °C 34395 hPa WSW 12.9 km/h 18.2 km/h 63 % 0 mm
00:10 -11.1 °C -14.9 °C 34395 hPa West 7.7 km/h 20.8 km/h 63 % 0 mm
00:16 -10.9 °C -14.8 °C 34428.8 hPa West 44.7 km/h 44.7 km/h 62 % 0 mm
00:20 -11.2 °C -14.9 °C 34395 hPa WNW 7.7 km/h 15.6 km/h 63 % 0 mm
00:30 -11.2 °C -15 °C 34395 hPa West 15.6 km/h 23.3 km/h 63 % 0 mm
00:36 -10.9 °C -14.8 °C 34395 hPa WSW 29.8 km/h 29.8 km/h 62 % 0 mm
00:40 -11.2 °C -15 °C 34428.8 hPa WNW 15.6 km/h 25.9 km/h 63 % 0 mm
00:45 -10.9 °C -14.9 °C 34395 hPa WSW 32.8 km/h 32.8 km/h 62 % 0 mm
00:50 -11 °C -14.9 °C 34428.8 hPa WSW 26.9 km/h 26.9 km/h 62 % 0 mm
01:00 -11.2 °C -15.2 °C 34395 hPa WSW 18.2 km/h 20.8 km/h 62 % 0 mm
01:02 -11 °C -14.8 °C 34428.8 hPa WSW 44.7 km/h 44.7 km/h 63 % 0 mm
01:10 -11.2 °C -15.2 °C 34395 hPa WSW 15.6 km/h 15.6 km/h 62 % 0 mm
01:20 -11.2 °C -15.1 °C 34395 hPa WSW 23.3 km/h 44.1 km/h 62 % 0 mm
01:24 -11 °C -14.8 °C 34428.8 hPa WNW 20.9 km/h 20.9 km/h 63 % 0 mm
01:30 -11.2 °C -15.3 °C 34395 hPa WSW 15.6 km/h 38.8 km/h 61 % 0 mm
01:40 -11.3 °C -15.3 °C 34395 hPa WSW 18.2 km/h 28.5 km/h 61 % 0 mm
01:50 -11.2 °C -15.3 °C 34395 hPa West 20.8 km/h 28.5 km/h 61 % 0 mm
02:00 -11.2 °C -15.4 °C 34395 hPa West 23.3 km/h 38.8 km/h 60 % 0 mm
02:10 -11.2 °C -15.5 °C 34395 hPa West 23.3 km/h 28.5 km/h 59 % 0 mm
02:20 -11.2 °C -15.7 °C 34428.8 hPa WSW 23.3 km/h 41.4 km/h 58 % 0 mm
02:30 -11.2 °C -15.7 °C 34428.8 hPa West 20.8 km/h 31.1 km/h 57 % 0 mm
02:40 -11.1 °C -15.7 °C 34428.8 hPa West 18.2 km/h 28.5 km/h 57 % 0 mm
02:50 -11.1 °C -15.8 °C 34462.7 hPa West 23.3 km/h 23.3 km/h 56 % 0 mm
03:00 -11 °C -15.7 °C 34462.7 hPa West 7.7 km/h 28.5 km/h 56 % 0 mm
03:10 -10.9 °C -15.8 °C 34462.7 hPa WSW 15.6 km/h 25.9 km/h 55 % 0 mm
03:20 -10.9 °C -15.8 °C 34462.7 hPa West 7.7 km/h 25.9 km/h 55 % 0 mm
03:25 -10.9 °C -15.8 °C 34462.7 hPa West 7.7 km/h 18.2 km/h 55 % 0 mm
09:25 -10.8 °C -15.7 °C 34462.7 hPa West 17.9 km/h 17.9 km/h 55 % 0 mm
09:32 -10.8 °C -15.7 °C 34462.7 hPa NNW 15 km/h 15 km/h 55 % 0 mm
09:38 -10.7 °C -15.6 °C 34462.7 hPa SSW 15 km/h 15 km/h 55 % 0 mm
09:45 -10.7 °C -15.6 °C 34462.7 hPa SSW 15.3 km/h 15.3 km/h 55 % 0 mm
09:51 -10.7 °C -15.6 °C 34462.7 hPa WSW 15 km/h 15 km/h 55 % 0 mm
10:03 -10.6 °C -15.6 °C 34462.7 hPa SW 29.8 km/h 29.8 km/h 54 % 0 mm
10:11 -10.5 °C -15.6 °C 34462.7 hPa WNW 32.8 km/h 32.8 km/h 54 % 0 mm
10:16 -10.5 °C -15.7 °C 34462.7 hPa WNW 23.8 km/h 23.8 km/h 53 % 0 mm
10:28 -10.4 °C -15.8 °C 34496.6 hPa WNW 38.8 km/h 38.8 km/h 52 % 0 mm
10:40 -10.4 °C -15.7 °C 34496.6 hPa WSW 26.9 km/h 26.9 km/h 52 % 0 mm
11:01 -10.2 °C -15.7 °C 34496.6 hPa SW 23.8 km/h 23.8 km/h 51 % 0 mm
11:08 -10.1 °C -15.7 °C 34533.8 hPa SW 20.9 km/h 20.9 km/h 51 % 0 mm
11:13 -10 °C -15.6 °C 34533.8 hPa WSW 20.9 km/h 20.9 km/h 51 % 0 mm
11:21 -9.9 °C -15.4 °C 34496.6 hPa WSW 15 km/h 15 km/h 51 % 0 mm
11:40 -9.4 °C -14.9 °C 34496.6 hPa North 8 km/h 8 km/h 51 % 0 mm
11:57 -9.4 °C -15.2 °C 34533.8 hPa WSW 20.9 km/h 20.9 km/h 50 % 0 mm
12:03 -9.4 °C -15.2 °C 34533.8 hPa SW 17.9 km/h 17.9 km/h 50 % 0 mm
12:11 -9.5 °C -15.4 °C 34533.8 hPa SSW 26.9 km/h 26.9 km/h 49 % 0 mm
12:25 -9.2 °C -15.2 °C 34567.7 hPa SSW 11.1 km/h 11.1 km/h 49 % 0 mm
13:08 -8.8 °C -15.1 °C 34533.8 hPa NW 11.9 km/h 11.9 km/h 47 % 0 mm
13:15 -8.8 °C -15.1 °C 34533.8 hPa SW 15 km/h 15 km/h 47 % 0 mm
13:27 -8.7 °C -15.2 °C 34567.7 hPa West 23.8 km/h 23.8 km/h 46 % 0 mm
13:32 -8.7 °C -15.2 °C 34567.7 hPa WSW 11.9 km/h 11.9 km/h 46 % 0 mm
13:38 -8.7 °C -15.4 °C 34533.8 hPa WSW 16.6 km/h 16.6 km/h 45 % 0 mm
14:00 -8.6 °C -15.4 °C 34533.8 hPa SW 15 km/h 15 km/h 44 % 0 mm
14:06 -8.7 °C -15.5 °C 34533.8 hPa West 15 km/h 15 km/h 44 % 0 mm
14:14 -8.7 °C -15.5 °C 34533.8 hPa WSW 15 km/h 15 km/h 44 % 0 mm
14:40 -8.7 °C -15.6 °C 34567.7 hPa West 15 km/h 15 km/h 44 % 0 mm
15:00 -8.6 °C -15.4 °C 34567.7 hPa West 15 km/h 15 km/h 44 % 0 mm
15:19 -8.7 °C -15.9 °C 34601.5 hPa WNW 20.9 km/h 20.9 km/h 42 % 0 mm
15:35 -8.8 °C -15.9 °C 34601.5 hPa WSW 26.9 km/h 26.9 km/h 42 % 0 mm
15:41 -8.8 °C -16.2 °C 34601.5 hPa West 23.8 km/h 23.8 km/h 41 % 0 mm
16:05 -8.8 °C -15.9 °C 34601.5 hPa West 17.9 km/h 17.9 km/h 42 % 0 mm
16:22 -8.9 °C -16.3 °C 34601.5 hPa WSW 15 km/h 15 km/h 41 % 0 mm
16:54 -9.2 °C -16.7 °C 34635.4 hPa WSW 11.9 km/h 11.9 km/h 40 % 0 mm
17:00 -9.3 °C -16.8 °C 34635.4 hPa WSW 6 km/h 6 km/h 40 % 0 mm
17:06 -9.3 °C -16.8 °C 34635.4 hPa WSW 15 km/h 15 km/h 40 % 0 mm
17:34 -9.9 °C -17.6 °C 34669.3 hPa WSW 15.6 km/h 15.6 km/h 39 % 0 mm
17:39 -10 °C -17.7 °C 34669.3 hPa SW 17.9 km/h 17.9 km/h 39 % 0 mm
17:45 -10.2 °C -17.8 °C 34669.3 hPa WSW 11.9 km/h 11.9 km/h 39 % 0 mm
17:51 -10.2 °C -17.8 °C 34669.3 hPa West 22.5 km/h 22.5 km/h 39 % 0 mm
18:10 -10.4 °C -18 °C 34669.3 hPa West 7.6 km/h 7.6 km/h 39 % 0 mm
18:41 -10.8 °C -18.2 °C 34669.3 hPa West 15.3 km/h 15.3 km/h 40 % 0 mm
19:00 -10.9 °C -18.2 °C 34669.3 hPa WSW 9 km/h 9 km/h 40 % 0 mm
19:12 -11 °C -18.2 °C 34669.3 hPa SW 9.3 km/h 9.3 km/h 41 % 0 mm
19:19 -11.1 °C -18.3 °C 34703.1 hPa SW 3.1 km/h 3.1 km/h 41 % 0 mm
19:32 -11.4 °C -18.6 °C 34703.1 hPa WSW 3.1 km/h   41 % 0 mm
19:44 -11.7 °C -18.8 °C 34703.1 hPa West 6 km/h 6.3 km/h 41 % 0 mm
19:57 -11.6 °C -18.5 °C 34740.4 hPa WSW 10.3 km/h 10.3 km/h 42 % 0 mm
20:15 -11.9 °C -18.7 °C 34703.1 hPa SSW 3.1 km/h 3.1 km/h 43 % 0 mm
20:39 -12.2 °C -18.6 °C 34740.4 hPa Calm     45 % 0 mm
20:44 -12.2 °C -18.6 °C 34740.4 hPa Calm     45 % 0 mm
20:49 -12.2 °C -18.4 °C 34703.1 hPa Calm     46 % 0 mm
20:54 -12.2 °C -18.3 °C 34703.1 hPa West 6 km/h 6 km/h 46 % 0 mm
20:59 -11.9 °C -18.2 °C 34703.1 hPa WSW 9 km/h 9 km/h 46 % 0 mm
21:04 -11.8 °C -18 °C 34703.1 hPa West 11.9 km/h 11.9 km/h 46 % 0 mm
21:09 -11.6 °C -17.8 °C 34703.1 hPa WSW 9 km/h 9 km/h 46 % 0 mm
21:14 -11.6 °C -17.8 °C 34703.1 hPa SW 6 km/h 6.3 km/h 46 % 0 mm
21:19 -11.6 °C -17.8 °C 34740.4 hPa WNW 11.9 km/h 11.9 km/h 46 % 0 mm
21:24 -11.6 °C -17.8 °C 34740.4 hPa West 6.3 km/h 6.3 km/h 46 % 0 mm
21:29 -11.6 °C -17.8 °C 34740.4 hPa WNW 6 km/h 6 km/h 46 % 0 mm
21:35 -11.7 °C -17.9 °C 34740.4 hPa WSW 8 km/h 8 km/h 46 % 0 mm
21:38 -11.7 °C -17.9 °C 34740.4 hPa West 11.9 km/h 11.9 km/h 46 % 0 mm
21:41 -11.7 °C -17.9 °C 34740.4 hPa WSW 11.9 km/h 11.9 km/h 46 % 0 mm
21:43 -11.7 °C -17.8 °C 34740.4 hPa WSW 10.3 km/h 10.3 km/h 47 % 0 mm
21:46 -11.8 °C -17.8 °C 34740.4 hPa West 11.9 km/h 11.9 km/h 47 % 0 mm
21:50 -14.1 °C -18.4 °C 34740.4 hPa Calm     57 % 0 mm
21:51 -11.8 °C -17.9 °C 34740.4 hPa West 9 km/h 9 km/h 47 % 0 mm
21:56 -11.9 °C -17.9 °C 34740.4 hPa West 9 km/h 9 km/h 47 % 0 mm
22:00 -14.1 °C -18.4 °C 34740.4 hPa NW 2.6 km/h 2.6 km/h 58 % 0 mm
22:01 -11.9 °C -17.9 °C 34740.4 hPa WSW 9.3 km/h 9.3 km/h 47 % 0 mm
22:05 -11.9 °C -17.9 °C 34740.4 hPa WSW 11.9 km/h 11.9 km/h 47 % 0 mm
22:10 -12 °C -18 °C 34740.4 hPa West 15 km/h 15 km/h 47 % 0 mm
22:11 -12 °C -18 °C 34740.4 hPa West 9 km/h 9 km/h 47 % 0 mm
22:16 -12.1 °C -17.9 °C 34740.4 hPa South 9 km/h 9 km/h 48 % 0 mm
22:20 -14.3 °C -18.4 °C 34703.1 hPa Calm   2.6 km/h 59 % 0 mm
22:21 -12.1 °C -17.9 °C 34774.2 hPa West 4.2 km/h 4.2 km/h 48 % 0 mm
22:22 -12.2 °C -18 °C 34774.2 hPa SSE 6 km/h   48 % 0 mm
22:25 -12.2 °C -18.1 °C 34774.2 hPa WNW 3.1 km/h 3.7 km/h 48 % 0 mm
22:27 -12.2 °C -18.1 °C 34774.2 hPa SW 3.1 km/h 3.1 km/h 48 % 0 mm
22:28 -12.2 °C -18.1 °C 34774.2 hPa SSE 3.1 km/h 3.1 km/h 48 % 0 mm
22:30 -14.3 °C -18.4 °C 34703.1 hPa NNE 5.1 km/h 5.1 km/h 59 % 0 mm
22:33 -12.3 °C -18.2 °C 34774.2 hPa North 6 km/h 6 km/h 48 % 0 mm
22:34 -12.3 °C -18.2 °C 34774.2 hPa WSW 6.8 km/h 6.8 km/h 48 % 0 mm
22:39 -12.4 °C -18.2 °C 34774.2 hPa WSW 9 km/h 9 km/h 48 % 0 mm
22:40 -14.3 °C -18.3 °C 34703.1 hPa North 2.6 km/h 7.7 km/h 60 % 0 mm
22:44 -12.4 °C -18.1 °C 34774.2 hPa WSW 6 km/h 6 km/h 49 % 0 mm
22:48 -12.4 °C -18.1 °C 34774.2 hPa West 6 km/h 6.3 km/h 49 % 0 mm
22:49 -12.5 °C -18.2 °C 34774.2 hPa WNW 6 km/h 6 km/h 49 % 0 mm
22:50 -14.4 °C -18.4 °C 34669.3 hPa Calm   5.1 km/h 60 % 0 mm
22:53 -12.5 °C -18.2 °C 34774.2 hPa South 6 km/h 6 km/h 49 % 0 mm
22:58 -12.6 °C -18.2 °C 34774.2 hPa West 6 km/h 6 km/h 49 % 0 mm
23:00 -14.5 °C -18.6 °C 34669.3 hPa Calm   5.1 km/h 59 % 0 mm
23:03 -12.6 °C -18.1 °C 34774.2 hPa West 6 km/h 6 km/h 50 % 0 mm
23:08 -12.7 °C -18.2 °C 34774.2 hPa WSW 6.8 km/h 6.8 km/h 50 % 0 mm
23:10 -14.6 °C -18.6 °C 34669.3 hPa Calm     60 % 0 mm
23:13 -12.7 °C -18.2 °C 34774.2 hPa South 3.1 km/h   50 % 0 mm
23:18 -12.7 °C -18.2 °C 34774.2 hPa WSW 3.1 km/h   50 % 0 mm
23:20 -14.7 °C -18.7 °C 34669.3 hPa NNW 2.6 km/h 2.6 km/h 60 % 0 mm
23:23 -12.7 °C -18.1 °C 34774.2 hPa West 6 km/h 6 km/h 51 % 0 mm
23:28 -12.7 °C -18 °C 34774.2 hPa WSW 3.1 km/h 3.1 km/h 51 % 0 mm
23:30 -14.7 °C -18.7 °C 34669.3 hPa NW 2.6 km/h 5.1 km/h 60 % 0 mm
23:33 -12.7 °C -18 °C 34774.2 hPa WSW 6 km/h 6 km/h 51 % 0 mm
23:38 -12.7 °C -18 °C 34774.2 hPa WSW 6 km/h 6 km/h 51 % 0 mm
23:40 -14.7 °C -18.7 °C 34669.3 hPa NW 2.6 km/h 5.1 km/h 60 % 0 mm
23:43 -12.6 °C -17.9 °C 34774.2 hPa WSW 3.1 km/h 3.1 km/h 51 % 0 mm
23:48 -12.6 °C -17.9 °C 34740.4 hPa Calm     51 % 0 mm
23:50 -14.9 °C -18.7 °C 34703.1 hPa WNW 2.6 km/h 5.1 km/h 61 % 0 mm
23:53 -12.7 °C -18 °C 34740.4 hPa WSW 3.1 km/h 3.1 km/h 51 % 0 mm
23:58 -12.7 °C -18 °C 34740.4 hPa WSW 6 km/h   51 % 0 mm
Meteo Sesrovires
Elogis d' Weather Underground - 1.25 mb

Guio original per  Jim McMurry - jmcmurry@mwt.net Adaptat per a la plantilla per  Wim van der Kuil - Leuven-Template.eu

Trobareu la nostra informacio del temps tambe a:

Weather Underground

AWEKAS